createdAt,value
2022-09-02T00:00:53.972Z,13.81
2022-09-02T00:01:49.149Z,13.74
2022-09-02T00:02:44.564Z,13.69
2022-09-02T00:03:40.168Z,13.63
2022-09-02T00:04:35.271Z,13.58
2022-09-02T00:05:30.527Z,13.51
2022-09-02T00:06:26.687Z,13.46
2022-09-02T00:07:21.958Z,13.40
2022-09-02T00:08:17.786Z,13.38
2022-09-02T00:09:12.895Z,13.38
2022-09-02T00:10:08.024Z,13.37
2022-09-02T00:11:03.816Z,13.37
2022-09-02T00:11:59.071Z,13.43
2022-09-02T00:12:54.867Z,13.58
2022-09-02T00:13:50.114Z,13.65
2022-09-02T00:14:45.374Z,13.70
2022-09-02T00:15:41.193Z,13.74
2022-09-02T00:16:36.434Z,13.76
2022-09-02T00:17:31.509Z,13.79
2022-09-02T00:18:27.842Z,13.79
2022-09-02T00:19:23.187Z,13.78
2022-09-02T00:20:18.982Z,13.76
2022-09-02T00:21:14.084Z,13.76
2022-09-02T00:22:09.203Z,13.75
2022-09-02T00:23:05.027Z,13.74
2022-09-02T00:24:00.291Z,13.75
2022-09-02T00:24:56.215Z,13.78
2022-09-02T00:25:51.312Z,13.80
2022-09-02T00:26:46.688Z,13.80
2022-09-02T00:27:42.507Z,13.79
2022-09-02T00:28:37.830Z,13.81
2022-09-02T00:29:33.023Z,13.78
2022-09-02T00:30:28.119Z,13.78
2022-09-02T00:31:24.802Z,13.77
2022-09-02T00:32:19.967Z,13.76
2022-09-02T00:33:15.271Z,13.72
2022-09-02T00:34:10.965Z,13.71
2022-09-02T00:35:06.097Z,13.70
2022-09-02T00:36:01.286Z,13.66
2022-09-02T00:36:57.641Z,13.61
2022-09-02T00:37:52.889Z,13.56
2022-09-02T00:38:48.696Z,13.52
2022-09-02T00:39:43.787Z,13.48
2022-09-02T00:40:38.958Z,13.44
2022-09-02T00:41:34.765Z,13.39
2022-09-02T00:42:30.013Z,13.40
2022-09-02T00:43:25.924Z,13.38
2022-09-02T00:44:21.066Z,13.34
2022-09-02T00:45:16.188Z,13.30
2022-09-02T00:46:12.021Z,13.28
2022-09-02T00:47:07.199Z,13.29
2022-09-02T00:48:02.427Z,13.25
2022-09-02T00:48:57.546Z,13.20
2022-09-02T00:49:52.654Z,13.16
2022-09-02T00:50:48.172Z,13.12
2022-09-02T00:51:43.303Z,13.13
2022-09-02T00:52:38.515Z,13.12
2022-09-02T00:53:34.330Z,13.13
2022-09-02T00:54:29.552Z,13.14
2022-09-02T00:55:24.932Z,13.14
2022-09-02T00:56:20.030Z,13.14
2022-09-02T00:57:15.100Z,13.13
2022-09-02T00:58:10.189Z,13.15
2022-09-02T00:59:05.330Z,13.16
2022-09-02T01:00:00.412Z,13.18
2022-09-02T01:00:55.593Z,13.14
2022-09-02T01:01:50.667Z,13.14
2022-09-02T01:02:45.700Z,13.11
2022-09-02T01:03:40.961Z,13.09
2022-09-02T01:04:35.778Z,13.05
2022-09-02T01:05:30.876Z,13.07
2022-09-02T01:06:25.995Z,13.08
2022-09-02T01:07:21.078Z,13.09
2022-09-02T01:08:16.199Z,13.09
2022-09-02T01:09:11.335Z,13.14
2022-09-02T01:10:06.296Z,13.18
2022-09-02T01:11:01.504Z,13.23
2022-09-02T01:11:56.664Z,13.24
2022-09-02T01:12:51.748Z,13.23
2022-09-02T01:13:46.822Z,13.23
2022-09-02T01:14:41.987Z,13.19
2022-09-02T01:15:36.951Z,13.12
2022-09-02T01:16:32.046Z,13.10
2022-09-02T01:17:27.030Z,13.09
2022-09-02T01:18:22.094Z,13.11
2022-09-02T01:19:17.242Z,13.10
2022-09-02T01:20:12.321Z,13.11
2022-09-02T01:21:07.392Z,13.07
2022-09-02T01:22:02.382Z,13.01
2022-09-02T01:22:58.022Z,12.96
2022-09-02T01:23:53.400Z,12.89
2022-09-02T01:24:48.401Z,12.82
2022-09-02T01:25:44.865Z,12.77
2022-09-02T01:26:40.111Z,12.76
2022-09-02T01:27:35.334Z,12.74
2022-09-02T01:28:31.710Z,12.75
2022-09-02T01:29:26.818Z,12.77
2022-09-02T01:30:22.619Z,12.79
2022-09-02T01:31:17.734Z,12.83
2022-09-02T01:32:12.816Z,12.82
2022-09-02T01:33:08.645Z,12.81
2022-09-02T01:34:03.919Z,12.80
2022-09-02T01:34:59.828Z,12.81
2022-09-02T01:35:54.910Z,12.77
2022-09-02T01:36:50.278Z,12.74
2022-09-02T01:37:55.381Z,12.76
2022-09-02T01:38:42.246Z,12.73
2022-09-02T01:39:36.398Z,12.72
2022-09-02T01:40:31.571Z,12.71
2022-09-02T01:41:26.536Z,12.73
2022-09-02T01:42:21.555Z,12.76
2022-09-02T01:43:16.616Z,12.79
2022-09-02T01:44:11.646Z,12.80
2022-09-02T01:45:06.626Z,12.82
2022-09-02T01:46:01.638Z,12.87
2022-09-02T01:47:02.354Z,12.88
2022-09-02T01:47:57.443Z,12.87
2022-09-02T01:48:52.858Z,12.85
2022-09-02T01:49:48.550Z,12.84
2022-09-02T01:50:46.718Z,12.86
2022-09-02T01:51:39.000Z,12.84
2022-09-02T01:52:34.269Z,12.84
2022-09-02T01:53:30.193Z,12.86
2022-09-02T01:54:25.319Z,12.90
2022-09-02T01:55:20.649Z,12.94
2022-09-02T01:56:16.732Z,12.98
2022-09-02T01:57:11.950Z,13.02
2022-09-02T01:58:07.803Z,13.04
2022-09-02T01:59:02.869Z,13.12
2022-09-02T01:59:58.256Z,13.12
2022-09-02T02:00:53.971Z,13.09
2022-09-02T02:01:49.235Z,13.03
2022-09-02T02:02:45.092Z,12.99
2022-09-02T02:03:40.154Z,12.96
2022-09-02T02:04:35.526Z,12.90
2022-09-02T02:05:31.222Z,12.89
2022-09-02T02:06:26.452Z,12.89
2022-09-02T02:07:21.666Z,12.89
2022-09-02T02:08:17.886Z,12.88
2022-09-02T02:09:13.004Z,12.84
2022-09-02T02:10:08.795Z,12.80
2022-09-02T02:11:03.996Z,12.78
2022-09-02T02:11:59.115Z,12.72
2022-09-02T02:12:54.901Z,12.68
2022-09-02T02:13:50.170Z,12.64
2022-09-02T02:14:45.816Z,12.62
2022-09-02T02:15:41.006Z,12.61
2022-09-02T02:16:36.340Z,12.62
2022-09-02T02:17:32.139Z,12.63
2022-09-02T02:18:27.389Z,12.63
2022-09-02T02:19:22.746Z,12.62
2022-09-02T02:20:19.072Z,12.61
2022-09-02T02:21:14.317Z,12.61
2022-09-02T02:22:10.102Z,12.61
2022-09-02T02:23:05.194Z,12.61
2022-09-02T02:24:00.401Z,12.63
2022-09-02T02:24:55.502Z,12.59
2022-09-02T02:25:50.490Z,12.56
2022-09-02T02:26:45.539Z,12.53
2022-09-02T02:27:40.686Z,12.50
2022-09-02T02:28:35.684Z,12.45
2022-09-02T02:29:30.789Z,12.45
2022-09-02T02:30:25.874Z,12.46
2022-09-02T02:31:21.029Z,12.48
2022-09-02T02:32:16.029Z,12.60
2022-09-02T02:33:10.999Z,12.74
2022-09-02T02:34:06.108Z,12.75
2022-09-02T02:35:01.096Z,12.74
2022-09-02T02:35:56.207Z,12.74
2022-09-02T02:36:51.219Z,12.71
2022-09-02T02:37:49.455Z,12.72
2022-09-02T02:38:44.404Z,12.75
2022-09-02T02:39:39.409Z,12.80
2022-09-02T02:40:34.516Z,12.84
2022-09-02T02:41:29.585Z,12.84
2022-09-02T02:42:24.674Z,12.82
2022-09-02T02:43:19.855Z,12.89
2022-09-02T02:44:14.784Z,12.92
2022-09-02T02:45:09.855Z,12.90
2022-09-02T02:46:06.467Z,12.93
2022-09-02T02:47:00.651Z,12.95
2022-09-02T02:47:55.743Z,13.00
2022-09-02T02:48:51.541Z,13.04
2022-09-02T02:49:46.742Z,13.06
2022-09-02T02:50:42.123Z,13.01
2022-09-02T02:51:37.222Z,13.01
2022-09-02T02:52:32.491Z,12.99
2022-09-02T02:53:27.584Z,12.96
2022-09-02T02:54:23.921Z,12.90
2022-09-02T02:55:20.050Z,12.84
2022-09-02T02:56:14.239Z,12.77
2022-09-02T02:57:13.500Z,12.70
2022-09-02T02:58:08.701Z,12.67
2022-09-02T02:59:04.076Z,12.67
2022-09-02T02:59:59.187Z,12.64
2022-09-02T03:00:54.269Z,12.69
2022-09-02T03:01:49.582Z,12.76
2022-09-02T03:02:44.515Z,12.77
2022-09-02T03:03:39.501Z,12.73
2022-09-02T03:04:34.486Z,12.69
2022-09-02T03:05:29.567Z,12.65
2022-09-02T03:06:26.620Z,12.62
2022-09-02T03:07:19.726Z,12.58
2022-09-02T03:08:14.807Z,12.55
2022-09-02T03:09:09.925Z,12.52
2022-09-02T03:10:04.959Z,12.53
2022-09-02T03:10:59.949Z,12.50
2022-09-02T03:11:55.047Z,12.46
2022-09-02T03:12:50.097Z,12.46
2022-09-02T03:13:45.216Z,12.42
2022-09-02T03:14:40.333Z,12.39
2022-09-02T03:15:35.325Z,12.39
2022-09-02T03:16:30.505Z,12.38
2022-09-02T03:17:25.541Z,12.40
2022-09-02T03:18:20.642Z,12.34
2022-09-02T03:19:15.722Z,12.32
2022-09-02T03:20:10.826Z,12.33
2022-09-02T03:21:05.843Z,12.33
2022-09-02T03:22:00.906Z,12.35
2022-09-02T03:22:55.962Z,12.36
2022-09-02T03:23:51.065Z,12.36
2022-09-02T03:24:46.180Z,12.35
2022-09-02T03:25:41.392Z,12.34
2022-09-02T03:26:36.493Z,12.37
2022-09-02T03:27:31.733Z,12.45
2022-09-02T03:28:26.827Z,12.53
2022-09-02T03:29:21.949Z,12.54
2022-09-02T03:30:17.024Z,12.54
2022-09-02T03:31:12.076Z,12.52
2022-09-02T03:32:07.130Z,12.50
2022-09-02T03:33:04.273Z,12.50
2022-09-02T03:33:57.263Z,12.52
2022-09-02T03:34:52.238Z,12.47
2022-09-02T03:35:47.342Z,12.44
2022-09-02T03:36:42.535Z,12.46
2022-09-02T03:37:37.667Z,12.42
2022-09-02T03:38:32.987Z,12.41
2022-09-02T03:39:28.067Z,12.39
2022-09-02T03:40:23.233Z,12.34
2022-09-02T03:41:18.314Z,12.32
2022-09-02T03:42:17.484Z,12.30
2022-09-02T03:43:09.335Z,12.30
2022-09-02T03:44:03.369Z,12.28
2022-09-02T03:44:58.483Z,12.27
2022-09-02T03:45:53.766Z,12.28
2022-09-02T03:46:48.773Z,12.33
2022-09-02T03:47:47.366Z,12.35
2022-09-02T03:48:42.432Z,12.39
2022-09-02T03:49:37.591Z,12.41
2022-09-02T03:50:32.572Z,12.45
2022-09-02T03:51:27.576Z,12.47
2022-09-02T03:52:22.651Z,12.48
2022-09-02T03:53:19.992Z,12.46
2022-09-02T03:54:13.843Z,12.41
2022-09-02T03:55:08.028Z,12.40
2022-09-02T03:56:03.221Z,12.38
2022-09-02T03:56:58.328Z,12.38
2022-09-02T03:57:53.399Z,12.39
2022-09-02T03:58:48.396Z,12.38
2022-09-02T03:59:47.809Z,12.36
2022-09-02T04:00:42.903Z,12.38
2022-09-02T04:01:37.923Z,12.45
2022-09-02T04:02:33.105Z,12.48
2022-09-02T04:03:28.090Z,12.58
2022-09-02T04:04:23.168Z,12.61
2022-09-02T04:05:18.280Z,12.61
2022-09-02T04:06:13.387Z,12.60
2022-09-02T04:07:08.497Z,12.60
2022-09-02T04:08:03.599Z,12.59
2022-09-02T04:08:58.614Z,12.61
2022-09-02T04:09:53.718Z,12.63
2022-09-02T04:10:48.735Z,12.63
2022-09-02T04:11:43.815Z,12.66
2022-09-02T04:12:39.064Z,12.70
2022-09-02T04:13:34.883Z,12.67
2022-09-02T04:14:29.993Z,12.62
2022-09-02T04:15:25.793Z,12.56
2022-09-02T04:16:21.045Z,12.49
2022-09-02T04:17:16.305Z,12.45
2022-09-02T04:18:13.771Z,12.40
2022-09-02T04:19:07.189Z,12.36
2022-09-02T04:20:02.371Z,12.32
2022-09-02T04:20:58.651Z,12.30
2022-09-02T04:21:53.820Z,12.28
2022-09-02T04:22:49.658Z,12.33
2022-09-02T04:23:44.952Z,12.36
2022-09-02T04:24:40.141Z,12.34
2022-09-02T04:25:35.989Z,12.31
2022-09-02T04:26:31.172Z,12.28
2022-09-02T04:27:27.003Z,12.26
2022-09-02T04:28:22.293Z,12.24
2022-09-02T04:29:17.509Z,12.22
2022-09-02T04:30:13.318Z,12.19
2022-09-02T04:31:08.544Z,12.15
2022-09-02T04:32:03.669Z,12.17
2022-09-02T04:33:00.078Z,12.20
2022-09-02T04:33:55.269Z,12.22
2022-09-02T04:34:51.058Z,12.19
2022-09-02T04:35:46.276Z,12.17
2022-09-02T04:36:41.499Z,12.13
2022-09-02T04:37:37.295Z,12.10
2022-09-02T04:38:32.534Z,12.08
2022-09-02T04:39:28.434Z,12.06
2022-09-02T04:40:23.614Z,12.06
2022-09-02T04:41:19.052Z,12.10
2022-09-02T04:42:14.325Z,12.15
2022-09-02T04:43:09.692Z,12.18
2022-09-02T04:44:05.754Z,12.16
2022-09-02T04:45:01.042Z,12.16
2022-09-02T04:45:56.901Z,12.19
2022-09-02T04:46:52.143Z,12.31
2022-09-02T04:47:47.437Z,12.40
2022-09-02T04:48:43.286Z,12.48
2022-09-02T04:49:38.572Z,12.53
2022-09-02T04:50:33.816Z,12.53
2022-09-02T04:51:30.292Z,12.50
2022-09-02T04:52:25.688Z,12.48
2022-09-02T04:53:21.615Z,12.54
2022-09-02T04:54:16.752Z,12.57
2022-09-02T04:55:12.018Z,12.59
2022-09-02T04:56:07.874Z,12.61
2022-09-02T04:57:03.133Z,12.66
2022-09-02T04:57:59.085Z,12.69
2022-09-02T04:58:54.249Z,12.67
2022-09-02T04:59:49.557Z,12.68
2022-09-02T05:00:44.831Z,12.65
2022-09-02T05:01:40.250Z,12.61
2022-09-02T05:02:35.652Z,12.57
2022-09-02T05:03:30.829Z,12.57
2022-09-02T05:04:26.224Z,12.55
2022-09-02T05:05:21.513Z,12.56
2022-09-02T05:06:18.004Z,12.57
2022-09-02T05:07:13.336Z,12.57
2022-09-02T05:08:08.776Z,12.55
2022-09-02T05:09:07.811Z,12.53
2022-09-02T05:10:03.075Z,12.53
2022-09-02T05:10:58.377Z,12.53
2022-09-02T05:11:53.704Z,12.51
2022-09-02T05:12:48.766Z,12.56
2022-09-02T05:13:43.825Z,12.63
2022-09-02T05:14:38.833Z,12.67
2022-09-02T05:15:34.062Z,12.68
2022-09-02T05:16:29.100Z,12.67
2022-09-02T05:17:24.131Z,12.66
2022-09-02T05:18:19.443Z,12.65
2022-09-02T05:19:14.787Z,12.62
2022-09-02T05:20:09.696Z,12.60
2022-09-02T05:21:04.943Z,12.59
2022-09-02T05:21:59.967Z,12.57
2022-09-02T05:22:54.994Z,12.58
2022-09-02T05:23:50.028Z,12.58
2022-09-02T05:24:45.086Z,12.57
2022-09-02T05:25:40.118Z,12.60
2022-09-02T05:26:35.216Z,12.62
2022-09-02T05:27:30.289Z,12.64
2022-09-02T05:28:25.349Z,12.66
2022-09-02T05:29:20.391Z,12.67
2022-09-02T05:30:15.463Z,12.71
2022-09-02T05:31:10.528Z,12.73
2022-09-02T05:32:07.988Z,12.80
2022-09-02T05:33:03.030Z,12.84
2022-09-02T05:33:58.106Z,12.87
2022-09-02T05:34:53.219Z,12.87
2022-09-02T05:35:49.765Z,12.88
2022-09-02T05:36:43.357Z,12.99
2022-09-02T05:37:38.405Z,13.09
2022-09-02T05:38:33.467Z,13.13
2022-09-02T05:39:28.530Z,13.34
2022-09-02T05:40:23.596Z,13.46
2022-09-02T05:41:18.665Z,13.49
2022-09-02T05:42:13.713Z,13.52
2022-09-02T05:43:09.495Z,13.54
2022-09-02T05:44:04.855Z,13.65
2022-09-02T05:45:00.344Z,13.82
2022-09-02T05:45:56.180Z,13.89
2022-09-02T05:46:51.407Z,13.93
2022-09-02T05:47:47.212Z,13.97
2022-09-02T05:48:42.593Z,13.95
2022-09-02T05:49:38.099Z,13.90
2022-09-02T05:50:33.769Z,13.82
2022-09-02T05:51:29.169Z,13.78
2022-09-02T05:52:24.551Z,13.76
2022-09-02T05:53:20.891Z,13.77
2022-09-02T05:54:16.280Z,13.79
2022-09-02T05:55:12.054Z,13.80
2022-09-02T05:56:07.407Z,13.81
2022-09-02T05:57:02.831Z,13.82
2022-09-02T05:57:58.596Z,13.88
2022-09-02T05:58:53.983Z,13.92
2022-09-02T05:59:49.769Z,13.83
2022-09-02T06:00:45.143Z,13.70
2022-09-02T06:03:04.146Z,13.34
2022-09-02T06:03:59.378Z,13.53
2022-09-02T06:04:54.756Z,13.65
2022-09-02T06:05:50.166Z,13.75
2022-09-02T06:06:45.566Z,13.79
2022-09-02T06:07:41.016Z,13.81
2022-09-02T06:08:36.485Z,13.87
2022-09-02T06:09:32.034Z,13.95
2022-09-02T06:10:27.560Z,14.02
2022-09-02T06:11:22.845Z,14.00
2022-09-02T06:12:18.244Z,13.96
2022-09-02T06:13:13.647Z,14.04
2022-09-02T06:14:09.102Z,14.13
2022-09-02T06:15:04.523Z,14.16
2022-09-02T06:16:00.199Z,14.19
2022-09-02T06:16:55.389Z,14.26
2022-09-02T06:17:50.850Z,14.36
2022-09-02T06:18:46.320Z,14.48
2022-09-02T06:19:41.831Z,14.54
2022-09-02T06:20:37.133Z,14.53
2022-09-02T06:21:32.556Z,14.57
2022-09-02T06:22:27.953Z,14.62
2022-09-02T06:23:23.547Z,14.67
2022-09-02T06:24:18.793Z,14.68
2022-09-02T06:25:14.214Z,14.69
2022-09-02T06:26:09.769Z,14.76
2022-09-02T06:27:05.191Z,14.73
2022-09-02T06:28:03.067Z,14.63
2022-09-02T06:28:57.216Z,14.60
2022-09-02T06:29:51.566Z,14.65
2022-09-02T06:30:47.014Z,14.74
2022-09-02T06:31:42.706Z,14.75
2022-09-02T06:32:38.028Z,14.64
2022-09-02T06:33:33.415Z,14.61
2022-09-02T06:34:28.882Z,14.57
2022-09-02T06:35:24.288Z,14.60
2022-09-02T06:36:19.695Z,14.72
2022-09-02T06:37:15.154Z,14.80
2022-09-02T06:38:10.684Z,14.88
2022-09-02T06:39:06.130Z,15.01
2022-09-02T06:40:01.563Z,15.11
2022-09-02T06:40:57.118Z,15.18
2022-09-02T06:41:52.538Z,15.22
2022-09-02T06:42:47.983Z,15.28
2022-09-02T06:43:43.415Z,15.40
2022-09-02T06:44:38.852Z,15.49
2022-09-02T06:45:34.298Z,15.60
2022-09-02T06:46:29.743Z,15.71
2022-09-02T06:47:25.340Z,15.78
2022-09-02T06:48:20.808Z,15.81
2022-09-02T06:49:16.334Z,15.87
2022-09-02T06:50:11.743Z,15.67
2022-09-02T06:51:07.043Z,15.65
2022-09-02T06:52:02.440Z,15.71
2022-09-02T06:52:57.889Z,15.74
2022-09-02T06:53:53.298Z,15.56
2022-09-02T06:54:48.845Z,15.46
2022-09-02T06:55:44.179Z,15.40
2022-09-02T06:56:39.732Z,15.35
2022-09-02T06:57:35.148Z,15.30
2022-09-02T06:58:30.591Z,15.44
2022-09-02T06:59:26.015Z,15.65
2022-09-02T07:00:21.459Z,15.72
2022-09-02T07:01:17.240Z,15.75
2022-09-02T07:02:12.707Z,15.78
2022-09-02T07:03:07.976Z,15.76
2022-09-02T07:04:03.565Z,15.89
2022-09-02T07:04:58.999Z,16.00
2022-09-02T07:05:54.495Z,15.94
2022-09-02T07:06:49.802Z,15.92
2022-09-02T07:07:45.228Z,15.81
2022-09-02T07:08:40.796Z,15.73
2022-09-02T07:09:36.103Z,15.68
2022-09-02T07:10:31.518Z,15.70
2022-09-02T07:11:27.094Z,15.78
2022-09-02T07:12:22.375Z,15.90
2022-09-02T07:13:17.860Z,16.04
2022-09-02T07:14:13.277Z,16.19
2022-09-02T07:15:08.693Z,16.20
2022-09-02T07:16:04.092Z,16.30
2022-09-02T07:16:59.644Z,16.44
2022-09-02T07:17:54.956Z,16.54
2022-09-02T07:18:50.433Z,16.67
2022-09-02T07:19:45.920Z,16.80
2022-09-02T07:20:41.393Z,16.86
2022-09-02T07:21:36.990Z,16.84
2022-09-02T07:22:32.369Z,16.74
2022-09-02T07:23:27.860Z,16.79
2022-09-02T07:24:23.349Z,16.90
2022-09-02T07:25:18.813Z,17.04
2022-09-02T07:26:14.272Z,17.13
2022-09-02T07:27:09.817Z,17.10
2022-09-02T07:28:05.422Z,17.03
2022-09-02T07:29:00.872Z,17.09
2022-09-02T07:29:56.349Z,17.14
2022-09-02T07:30:53.650Z,17.16
2022-09-02T07:31:47.418Z,17.10
2022-09-02T07:32:42.813Z,16.88
2022-09-02T07:33:38.196Z,16.80
2022-09-02T07:34:33.729Z,16.90
2022-09-02T07:35:28.988Z,17.10
2022-09-02T07:36:24.433Z,17.27
2022-09-02T07:37:19.831Z,17.47
2022-09-02T07:38:15.518Z,17.60
2022-09-02T07:39:11.111Z,17.70
2022-09-02T07:40:06.445Z,17.92
2022-09-02T07:41:01.905Z,18.12
2022-09-02T07:41:57.194Z,18.11
2022-09-02T07:42:52.780Z,18.08
2022-09-02T07:43:51.011Z,17.71
2022-09-02T07:44:43.795Z,17.48
2022-09-02T07:45:39.121Z,17.40
2022-09-02T07:46:34.644Z,17.58
2022-09-02T07:47:30.042Z,17.76
2022-09-02T07:48:25.560Z,17.78
2022-09-02T07:49:23.985Z,17.87
2022-09-02T07:50:19.718Z,18.08
2022-09-02T07:51:11.785Z,18.27
2022-09-02T07:52:07.338Z,18.42
2022-09-02T07:53:02.683Z,18.47
2022-09-02T07:53:58.090Z,18.60
2022-09-02T07:54:53.640Z,18.49
2022-09-02T07:55:49.028Z,18.38
2022-09-02T07:56:44.516Z,18.21
2022-09-02T07:57:40.044Z,18.08
2022-09-02T07:58:35.570Z,18.08
2022-09-02T07:59:30.957Z,18.15
2022-09-02T08:00:26.670Z,18.06
2022-09-02T08:01:23.743Z,17.99
2022-09-02T08:02:17.705Z,17.90
2022-09-02T08:03:13.249Z,17.89
2022-09-02T08:04:08.645Z,17.94
2022-09-02T08:05:04.165Z,18.20
2022-09-02T08:05:59.770Z,18.58
2022-09-02T08:06:55.045Z,18.87
2022-09-02T08:07:50.446Z,19.08
2022-09-02T08:08:45.995Z,19.04
2022-09-02T08:09:41.533Z,19.02
2022-09-02T08:10:37.056Z,19.09
2022-09-02T08:11:32.708Z,19.23
2022-09-02T08:12:28.208Z,19.31
2022-09-02T08:13:23.809Z,19.13
2022-09-02T08:14:19.164Z,18.88
2022-09-02T08:15:14.545Z,18.75
2022-09-02T08:16:10.001Z,18.71
2022-09-02T08:17:05.387Z,18.91
2022-09-02T08:18:00.925Z,19.20
2022-09-02T08:18:56.715Z,19.53
2022-09-02T08:19:52.105Z,19.55
2022-09-02T08:20:47.362Z,19.67
2022-09-02T08:21:42.897Z,19.86
2022-09-02T08:22:38.293Z,19.97
2022-09-02T08:23:37.025Z,20.05
2022-09-02T08:24:29.195Z,19.87
2022-09-02T08:25:24.872Z,19.69
2022-09-02T08:26:20.252Z,19.31
2022-09-02T08:27:15.922Z,18.76
2022-09-02T08:28:11.196Z,18.67
2022-09-02T08:29:06.580Z,19.01
2022-09-02T08:30:02.003Z,19.41
2022-09-02T08:30:57.402Z,19.73
2022-09-02T08:31:54.183Z,19.95
2022-09-02T08:32:48.260Z,20.12
2022-09-02T08:33:43.642Z,20.11
2022-09-02T08:34:39.183Z,19.96
2022-09-02T08:35:34.593Z,19.83
2022-09-02T08:36:29.981Z,19.78
2022-09-02T08:37:25.509Z,19.78
2022-09-02T08:38:20.901Z,20.00
2022-09-02T08:39:16.447Z,20.31
2022-09-02T08:40:12.019Z,20.26
2022-09-02T08:41:07.551Z,20.30
2022-09-02T08:42:03.261Z,20.49
2022-09-02T08:42:58.640Z,20.59
2022-09-02T08:43:54.163Z,20.67
2022-09-02T08:44:49.650Z,20.76
2022-09-02T08:45:45.160Z,20.84
2022-09-02T08:46:40.474Z,20.74
2022-09-02T08:47:35.867Z,20.62
2022-09-02T08:48:31.264Z,20.58
2022-09-02T08:49:26.625Z,20.57
2022-09-02T08:50:22.338Z,20.60
2022-09-02T08:51:17.825Z,20.64
2022-09-02T08:52:17.229Z,20.69
2022-09-02T08:53:08.557Z,20.42
2022-09-02T08:54:04.053Z,20.38
2022-09-02T08:54:59.420Z,20.31
2022-09-02T08:55:54.819Z,20.23
2022-09-02T08:56:50.325Z,20.42
2022-09-02T08:57:46.005Z,20.64
2022-09-02T08:58:41.389Z,20.87
2022-09-02T08:59:36.945Z,21.13
2022-09-02T09:00:32.586Z,20.89
2022-09-02T09:01:27.919Z,20.60
2022-09-02T09:02:23.371Z,20.28
2022-09-02T09:03:18.689Z,20.31
2022-09-02T09:04:14.176Z,20.61
2022-09-02T09:05:09.689Z,20.93
2022-09-02T09:06:05.116Z,21.19
2022-09-02T09:07:00.769Z,21.27
2022-09-02T09:07:56.185Z,21.47
2022-09-02T09:08:51.721Z,21.46
2022-09-02T09:09:47.119Z,21.26
2022-09-02T09:10:42.642Z,21.10
2022-09-02T09:11:38.031Z,20.99
2022-09-02T09:12:33.704Z,21.03
2022-09-02T09:13:29.202Z,20.82
2022-09-02T09:14:24.704Z,20.61
2022-09-02T09:15:20.086Z,20.61
2022-09-02T09:16:15.530Z,20.73
2022-09-02T09:17:10.991Z,20.70
2022-09-02T09:18:06.501Z,20.48
2022-09-02T09:19:03.821Z,20.55
2022-09-02T09:19:57.461Z,20.68
2022-09-02T09:20:52.961Z,20.92
2022-09-02T09:21:48.611Z,21.28
2022-09-02T09:22:44.070Z,21.72
2022-09-02T09:23:39.455Z,21.70
2022-09-02T09:24:35.130Z,21.70
2022-09-02T09:25:30.525Z,21.87
2022-09-02T09:26:26.022Z,21.99
2022-09-02T09:27:21.594Z,22.22
2022-09-02T09:28:17.220Z,22.05
2022-09-02T09:29:12.749Z,22.01
2022-09-02T09:30:11.680Z,22.13
2022-09-02T09:31:04.959Z,22.31
2022-09-02T09:31:59.222Z,22.24
2022-09-02T09:32:54.665Z,22.10
2022-09-02T09:33:50.186Z,21.85
2022-09-02T09:34:45.949Z,21.52
2022-09-02T09:35:41.462Z,21.57
2022-09-02T09:36:36.820Z,21.49
2022-09-02T09:37:35.906Z,21.60
2022-09-02T09:38:28.016Z,21.40
2022-09-02T09:39:23.278Z,21.22
2022-09-02T09:40:18.936Z,21.01
2022-09-02T09:41:14.337Z,20.76
2022-09-02T09:42:09.716Z,20.58
2022-09-02T09:43:05.403Z,20.85
2022-09-02T09:44:00.699Z,21.19
2022-09-02T09:44:56.365Z,21.71
2022-09-02T09:45:52.037Z,21.82
2022-09-02T09:46:47.536Z,21.58
2022-09-02T09:47:43.046Z,21.46
2022-09-02T09:48:38.546Z,21.40
2022-09-02T09:49:34.066Z,21.69
2022-09-02T09:50:29.725Z,21.97
2022-09-02T09:51:25.240Z,22.07
2022-09-02T09:52:20.779Z,22.11
2022-09-02T09:53:16.446Z,22.29
2022-09-02T09:54:11.938Z,22.15
2022-09-02T09:55:07.434Z,21.86
2022-09-02T09:56:02.953Z,21.60
2022-09-02T09:56:58.445Z,21.68
2022-09-02T09:57:53.970Z,21.63
2022-09-02T09:58:49.475Z,21.71
2022-09-02T09:59:44.964Z,21.74
2022-09-02T10:00:40.565Z,22.06
2022-09-02T10:01:36.215Z,22.48
2022-09-02T10:02:36.308Z,22.78
2022-09-02T10:03:33.088Z,23.04
2022-09-02T10:04:41.917Z,23.09
2022-09-02T10:05:18.961Z,23.27
2022-09-02T10:06:13.553Z,23.48
2022-09-02T10:07:09.037Z,23.31
2022-09-02T10:08:04.691Z,23.14
2022-09-02T10:09:01.097Z,23.36
2022-09-02T10:09:55.543Z,23.66
2022-09-02T10:10:50.947Z,23.53
2022-09-02T10:11:46.613Z,23.69
2022-09-02T10:12:42.145Z,23.88
2022-09-02T10:13:37.815Z,23.89
2022-09-02T10:14:33.203Z,24.04
2022-09-02T10:15:28.715Z,24.29
2022-09-02T10:16:24.944Z,24.43
2022-09-02T10:17:19.901Z,24.60
2022-09-02T10:18:15.421Z,24.42
2022-09-02T10:19:10.866Z,23.73
2022-09-02T10:20:06.131Z,23.49
2022-09-02T10:21:14.829Z,23.45
2022-09-02T10:21:58.262Z,23.47
2022-09-02T10:22:59.741Z,23.06
2022-09-02T10:23:49.212Z,23.29
2022-09-02T10:24:43.765Z,23.48
2022-09-02T10:25:39.147Z,23.36
2022-09-02T10:26:34.613Z,23.48
2022-09-02T10:27:30.263Z,23.26
2022-09-02T10:28:25.901Z,23.36
2022-09-02T10:29:21.253Z,23.28
2022-09-02T10:30:17.022Z,23.43
2022-09-02T10:31:12.368Z,23.03
2022-09-02T10:32:08.020Z,22.90
2022-09-02T10:33:03.527Z,22.87
2022-09-02T10:33:58.766Z,22.83
2022-09-02T10:34:54.244Z,22.67
2022-09-02T10:35:49.570Z,22.46
2022-09-02T10:36:45.007Z,22.57
2022-09-02T10:37:40.449Z,22.57
2022-09-02T10:38:35.807Z,22.78
2022-09-02T10:39:31.219Z,23.06
2022-09-02T10:40:26.742Z,23.21
2022-09-02T10:41:22.172Z,23.23
2022-09-02T10:42:17.599Z,23.45
2022-09-02T10:43:13.058Z,23.57
2022-09-02T10:44:08.497Z,23.76
2022-09-02T10:45:03.946Z,23.92
2022-09-02T10:45:59.553Z,23.91
2022-09-02T10:46:55.154Z,23.49
2022-09-02T10:48:45.677Z,23.09
2022-09-02T10:49:41.170Z,23.24
2022-09-02T10:50:36.628Z,23.65
2022-09-02T10:51:31.936Z,23.92
2022-09-02T10:52:27.376Z,24.21
2022-09-02T10:53:22.865Z,24.34
2022-09-02T10:54:18.325Z,24.28
2022-09-02T10:55:14.016Z,24.05
2022-09-02T10:56:09.445Z,23.92
2022-09-02T10:57:04.756Z,24.00
2022-09-02T10:58:00.206Z,24.17
2022-09-02T10:58:55.744Z,24.15
2022-09-02T10:59:51.085Z,24.31
2022-09-02T11:00:46.547Z,24.69
2022-09-02T11:01:42.681Z,25.02
2022-09-02T11:02:37.426Z,25.06
2022-09-02T11:03:32.938Z,24.82
2022-09-02T11:04:28.308Z,24.84
2022-09-02T11:05:23.701Z,24.94
2022-09-02T11:06:19.178Z,25.04
2022-09-02T11:07:14.605Z,24.97
2022-09-02T11:08:10.110Z,24.94
2022-09-02T11:09:05.614Z,24.84
2022-09-02T11:10:01.083Z,24.51
2022-09-02T11:10:56.529Z,24.30
2022-09-02T11:11:51.882Z,24.69
2022-09-02T11:12:47.302Z,25.12
2022-09-02T11:13:42.778Z,25.25
2022-09-02T11:14:38.199Z,24.81
2022-09-02T11:15:35.942Z,24.33
2022-09-02T11:16:29.210Z,24.02
2022-09-02T11:17:24.705Z,23.86
2022-09-02T11:18:20.009Z,23.81
2022-09-02T11:19:15.503Z,24.09
2022-09-02T11:20:10.936Z,24.46
2022-09-02T11:21:06.365Z,24.55
2022-09-02T11:22:01.697Z,24.44
2022-09-02T11:22:57.094Z,24.26
2022-09-02T11:23:52.573Z,24.06
2022-09-02T11:24:48.148Z,23.83
2022-09-02T11:25:43.458Z,23.71
2022-09-02T11:26:38.966Z,23.86
2022-09-02T11:27:42.797Z,24.06
2022-09-02T11:28:30.942Z,24.30
2022-09-02T11:29:25.427Z,24.53
2022-09-02T11:30:20.831Z,24.29
2022-09-02T11:31:16.120Z,24.27
2022-09-02T11:32:11.528Z,24.37
2022-09-02T11:33:07.090Z,24.67
2022-09-02T11:34:57.933Z,24.90
2022-09-02T11:35:53.351Z,24.55
2022-09-02T11:36:48.823Z,24.48
2022-09-02T11:37:44.237Z,24.55
2022-09-02T11:38:39.686Z,24.75
2022-09-02T11:39:54.040Z,24.98
2022-09-02T11:40:34.728Z,24.96
2022-09-02T11:41:41.494Z,24.87
2022-09-02T11:42:22.508Z,24.67
2022-09-02T11:43:17.001Z,24.44
2022-09-02T11:44:12.537Z,24.46
2022-09-02T11:45:08.017Z,24.55
2022-09-02T11:46:03.615Z,24.53
2022-09-02T11:46:59.062Z,24.59
2022-09-02T11:47:54.328Z,24.65
2022-09-02T11:48:49.671Z,24.77
2022-09-02T11:49:45.227Z,24.73
2022-09-02T11:50:40.425Z,24.70
2022-09-02T11:51:35.857Z,24.79
2022-09-02T11:52:32.081Z,25.00
2022-09-02T11:53:28.171Z,25.24
2022-09-02T11:54:22.371Z,25.37
2022-09-02T11:55:17.967Z,25.11
2022-09-02T11:56:15.855Z,25.03
2022-09-02T11:57:08.843Z,25.13